Time;durP1;ratioP1;P1;durP2;ratioP2;P2;SDS_P1;SDS_P2;PMS_P1;PMS_P2;Temp;Humidity;BMP_temperature;BMP_pressure;BME280_temperature;BME280_humidity;BME280_pressure;Samples;Min_cycle;Max_cycle;Signal;HPM_P1;HPM_P2
2020/12/31 00:01:23;;;;;;;39.28;17.05;;;4.70;99.90;;;;;;5014603;28;20045;-66
2020/12/31 00:03:49;;;;;;;45.15;18.50;;;4.60;99.90;;;;;;5014388;28;20401;-66
2020/12/31 00:06:15;;;;;;;41.65;18.58;;;4.60;99.90;;;;;;5013639;28;20435;-66
2020/12/31 00:08:41;;;;;;;38.15;18.00;;;4.60;99.90;;;;;;5014433;28;20026;-66
2020/12/31 00:11:07;;;;;;;34.80;17.20;;;4.60;99.90;;;;;;5015661;28;20049;-67
2020/12/31 00:13:32;;;;;;;33.90;16.60;;;4.50;99.90;;;;;;5011760;28;20117;-66
2020/12/31 00:15:59;;;;;;;38.38;18.95;;;4.60;99.90;;;;;;5012678;28;20029;-67
2020/12/31 00:18:25;;;;;;;42.10;19.73;;;4.50;99.90;;;;;;5015640;28;20025;-66
2020/12/31 00:20:51;;;;;;;36.67;17.95;;;4.50;99.90;;;;;;5008874;28;20061;-67
2020/12/31 00:23:17;;;;;;;39.58;19.35;;;4.60;99.90;;;;;;5012661;28;20275;-66
2020/12/31 00:25:52;;;;;;;38.90;18.77;;;4.60;99.90;;;;;;5014387;28;20187;-67
2020/12/31 00:28:19;;;;;;;37.80;18.27;;;4.70;99.90;;;;;;5012992;28;20091;-67
2020/12/31 00:30:46;;;;;;;35.03;17.58;;;4.60;99.90;;;;;;5014661;28;20026;-66
2020/12/31 00:33:14;;;;;;;40.55;19.88;;;4.70;99.90;;;;;;5011882;28;20025;-66
2020/12/31 00:35:42;;;;;;;36.80;17.10;;;4.70;99.90;;;;;;5013973;28;20458;-67
2020/12/31 00:38:08;;;;;;;51.17;21.25;;;4.70;99.90;;;;;;5012258;28;20120;-67
2020/12/31 00:40:33;;;;;;;35.90;18.38;;;4.70;99.90;;;;;;5015050;28;20538;-66
2020/12/31 00:43:00;;;;;;;35.85;18.08;;;4.70;99.90;;;;;;5012810;28;20045;-67
2020/12/31 00:45:27;;;;;;;39.67;18.52;;;4.70;99.90;;;;;;5015637;28;20030;-67
2020/12/31 00:47:53;;;;;;;32.28;16.38;;;4.70;99.90;;;;;;5012972;28;20461;-66
2020/12/31 00:50:22;;;;;;;44.70;17.55;;;4.70;99.90;;;;;;5015269;28;20389;-66
2020/12/31 00:52:49;;;;;;;44.55;17.67;;;4.70;99.90;;;;;;5011561;28;20025;-66
2020/12/31 00:55:14;;;;;;;37.97;17.77;;;4.80;99.90;;;;;;5013170;28;20548;-66
2020/12/31 00:57:40;;;;;;;62.13;20.08;;;4.80;99.90;;;;;;5018448;28;21926;-66
2020/12/31 01:00:07;;;;;;;39.40;17.95;;;4.80;99.90;;;;;;5016539;28;20372;-67
2020/12/31 01:02:33;;;;;;;40.03;18.13;;;4.90;99.90;;;;;;5019866;28;20037;-67
2020/12/31 01:04:58;;;;;;;41.97;18.83;;;4.90;99.90;;;;;;5015606;28;20505;-66
2020/12/31 01:07:24;;;;;;;36.30;17.30;;;4.90;99.90;;;;;;5017918;28;20503;-66
2020/12/31 01:09:50;;;;;;;29.83;16.38;;;4.90;99.90;;;;;;5019052;28;20036;-67
2020/12/31 01:12:16;;;;;;;45.97;19.48;;;4.90;99.90;;;;;;5016108;28;20039;-67
2020/12/31 01:14:42;;;;;;;43.85;19.40;;;5.00;99.90;;;;;;5016723;28;20465;-67
2020/12/31 01:17:07;;;;;;;38.50;18.48;;;4.90;99.90;;;;;;5015124;28;20120;-66
2020/12/31 01:19:33;;;;;;;33.60;17.02;;;4.90;99.90;;;;;;5017597;28;20261;-67
2020/12/31 01:21:59;;;;;;;37.33;17.88;;;5.00;99.90;;;;;;5016415;28;20049;-66
2020/12/31 01:24:25;;;;;;;31.83;16.77;;;5.00;99.90;;;;;;5017811;28;20026;-67
2020/12/31 01:26:50;;;;;;;34.63;17.25;;;5.00;99.90;;;;;;5015247;28;20120;-66
2020/12/31 01:29:16;;;;;;;37.22;17.85;;;4.90;99.90;;;;;;5018801;28;20037;-67
2020/12/31 01:31:48;;;;;;;35.05;16.80;;;5.00;99.90;;;;;;5015043;28;20589;-66
2020/12/31 01:34:15;;;;;;;28.02;14.98;;;4.90;99.90;;;;;;5016575;28;20359;-66
2020/12/31 01:36:41;;;;;;;32.83;17.92;;;5.00;99.90;;;;;;5014765;28;20029;-67
2020/12/31 01:39:06;;;;;;;37.60;18.17;;;4.90;99.90;;;;;;5017082;28;20403;-66
2020/12/31 01:41:32;;;;;;;33.47;16.77;;;4.90;99.90;;;;;;5017517;28;20041;-67
2020/12/31 01:44:10;;;;;;;35.15;16.33;;;5.00;99.90;;;;;;5011801;28;20036;-66
2020/12/31 01:46:38;;;;;;;36.05;19.10;;;5.00;99.90;;;;;;5015801;28;20806;-66
2020/12/31 01:49:07;;;;;;;30.20;15.98;;;5.00;99.90;;;;;;5015464;28;20196;-66
2020/12/31 01:51:36;;;;;;;35.42;17.35;;;4.90;99.90;;;;;;5017649;28;20076;-67
2020/12/31 01:54:03;;;;;;;35.67;19.08;;;5.00;99.90;;;;;;5010392;28;20471;-67
2020/12/31 01:56:32;;;;;;;31.50;16.55;;;5.00;99.90;;;;;;5016353;28;20115;-66
2020/12/31 01:58:58;;;;;;;31.88;16.83;;;5.00;99.90;;;;;;5015836;28;20025;-67
2020/12/31 02:01:25;;;;;;;35.90;18.70;;;5.00;99.90;;;;;;5015790;28;20415;-67
2020/12/31 02:03:55;;;;;;;32.90;18.65;;;4.90;99.90;;;;;;5014173;28;20128;-67
2020/12/31 02:06:23;;;;;;;34.88;19.73;;;4.90;99.90;;;;;;5014424;28;20111;-67
2020/12/31 02:08:49;;;;;;;30.95;16.08;;;5.00;99.90;;;;;;5018004;28;20052;-67
2020/12/31 02:11:18;;;;;;;32.60;17.77;;;4.90;99.90;;;;;;5015083;28;20049;-67
2020/12/31 02:13:47;;;;;;;34.00;17.40;;;4.90;99.90;;;;;;5013411;28;20038;-67
2020/12/31 02:16:14;;;;;;;38.03;17.67;;;4.90;99.90;;;;;;5013995;28;20056;-67
2020/12/31 02:18:54;;;;;;;32.17;17.58;;;4.90;99.90;;;;;;5017928;28;20370;-67
2020/12/31 02:21:23;;;;;;;33.13;16.98;;;4.90;99.90;;;;;;5016834;28;20082;-67
2020/12/31 02:23:49;;;;;;;33.42;16.58;;;4.90;99.90;;;;;;5016013;28;20034;-67
2020/12/31 02:26:15;;;;;;;28.33;15.73;;;4.90;99.90;;;;;;5016987;28;20071;-67
2020/12/31 02:28:40;;;;;;;25.80;15.27;;;5.00;99.90;;;;;;5015444;28;20037;-67
2020/12/31 02:31:06;;;;;;;26.67;14.88;;;5.10;99.90;;;;;;5014903;28;20033;-67
2020/12/31 02:33:32;;;;;;;25.88;14.68;;;5.10;99.90;;;;;;5015561;28;20056;-67
2020/12/31 02:35:58;;;;;;;28.90;15.30;;;5.00;99.90;;;;;;5013755;28;20141;-67
2020/12/31 02:38:24;;;;;;;29.70;16.35;;;4.90;99.90;;;;;;5015576;28;20044;-67
2020/12/31 02:40:50;;;;;;;27.75;15.52;;;4.90;99.90;;;;;;5016671;28;20112;-67
2020/12/31 02:43:16;;;;;;;28.88;16.08;;;4.90;99.90;;;;;;5012556;28;20034;-67
2020/12/31 02:45:42;;;;;;;27.38;15.02;;;4.90;99.90;;;;;;5017162;28;20127;-67
2020/12/31 02:48:08;;;;;;;27.38;15.23;;;5.00;99.90;;;;;;5015288;28;20671;-67
2020/12/31 02:50:33;;;;;;;27.73;16.45;;;5.00;99.90;;;;;;5016344;28;20103;-67
2020/12/31 02:52:59;;;;;;;24.67;13.85;;;4.90;99.90;;;;;;5014165;28;20042;-68
2020/12/31 02:55:25;;;;;;;27.15;15.00;;;4.90;99.90;;;;;;5013428;28;20044;-67
2020/12/31 02:57:51;;;;;;;26.80;15.23;;;4.90;99.90;;;;;;5015626;28;20478;-67
2020/12/31 03:00:17;;;;;;;25.40;14.95;;;4.90;99.90;;;;;;5015633;28;20033;-67
2020/12/31 03:02:43;;;;;;;24.17;13.13;;;4.90;99.90;;;;;;5013798;28;20045;-67
2020/12/31 03:05:09;;;;;;;24.30;14.73;;;4.90;99.90;;;;;;5011514;28;20507;-67
2020/12/31 03:07:35;;;;;;;22.83;12.65;;;4.80;99.90;;;;;;5014531;28;20865;-67
2020/12/31 03:10:00;;;;;;;21.00;12.88;;;4.90;99.90;;;;;;5015785;28;20037;-67
2020/12/31 03:12:26;;;;;;;19.10;12.98;;;4.80;99.90;;;;;;5013943;28;20749;-67
2020/12/31 03:14:52;;;;;;;24.65;13.68;;;4.80;99.90;;;;;;5013497;28;20078;-67
2020/12/31 03:17:18;;;;;;;23.05;13.25;;;4.80;99.90;;;;;;5013646;28;20542;-67
2020/12/31 03:19:43;;;;;;;21.80;13.93;;;4.70;99.90;;;;;;5012805;28;20061;-67
2020/12/31 03:22:09;;;;;;;22.27;14.35;;;4.80;99.90;;;;;;5015885;28;20049;-67
2020/12/31 03:24:35;;;;;;;24.10;15.00;;;4.70;99.90;;;;;;5014330;28;20037;-67
2020/12/31 03:27:01;;;;;;;21.40;13.68;;;4.80;99.90;;;;;;5016508;28;20428;-67
2020/12/31 03:29:27;;;;;;;20.50;12.93;;;4.80;99.90;;;;;;5013622;28;20033;-67
2020/12/31 03:31:52;;;;;;;22.35;14.02;;;4.70;99.90;;;;;;5015327;28;20033;-67
2020/12/31 03:34:18;;;;;;;22.65;13.98;;;4.70;99.90;;;;;;5015177;28;20057;-67
2020/12/31 03:36:44;;;;;;;21.17;13.50;;;4.80;99.90;;;;;;5011401;28;20052;-67
2020/12/31 03:39:10;;;;;;;26.40;14.93;;;4.80;99.90;;;;;;5013839;28;20485;-67
2020/12/31 03:41:36;;;;;;;26.83;14.98;;;4.80;99.90;;;;;;5015159;28;20119;-67
2020/12/31 03:44:02;;;;;;;24.23;14.75;;;4.90;99.90;;;;;;5014160;28;20151;-66
2020/12/31 03:46:28;;;;;;;24.73;14.25;;;4.90;99.90;;;;;;5012679;28;20108;-67
2020/12/31 03:48:53;;;;;;;28.45;16.33;;;4.90;99.90;;;;;;5015367;28;20053;-67
2020/12/31 03:51:19;;;;;;;29.67;15.02;;;4.90;99.90;;;;;;5015574;28;20036;-67
2020/12/31 03:53:45;;;;;;;41.15;18.25;;;4.90;99.90;;;;;;5005910;28;20144;-67
2020/12/31 03:56:11;;;;;;;33.95;17.60;;;4.90;99.90;;;;;;5011006;28;20535;-67
2020/12/31 03:58:37;;;;;;;32.40;16.17;;;5.00;99.90;;;;;;5015648;28;20033;-66
2020/12/31 04:01:02;;;;;;;37.17;18.05;;;4.90;99.90;;;;;;5014609;28;20501;-66
2020/12/31 04:03:28;;;;;;;41.08;18.30;;;4.80;99.90;;;;;;5010857;28;20032;-67
2020/12/31 04:05:54;;;;;;;32.67;17.10;;;4.80;99.90;;;;;;5014360;28;20067;-67
2020/12/31 04:08:20;;;;;;;31.63;15.68;;;4.80;99.90;;;;;;5014165;28;20386;-66
2020/12/31 04:10:46;;;;;;;35.42;17.40;;;4.80;99.90;;;;;;5013370;28;20038;-67
2020/12/31 04:13:11;;;;;;;28.70;13.98;;;4.80;99.90;;;;;;5012006;28;20694;-66
2020/12/31 04:15:37;;;;;;;26.38;13.68;;;4.80;99.90;;;;;;5011569;28;20038;-67
2020/12/31 04:18:03;;;;;;;25.67;13.70;;;4.90;99.90;;;;;;5012077;28;20436;-67
2020/12/31 04:20:29;;;;;;;23.35;12.20;;;4.90;99.90;;;;;;5015275;28;20108;-66
2020/12/31 04:22:54;;;;;;;22.02;12.40;;;4.90;99.90;;;;;;5014305;28;20064;-67
2020/12/31 04:25:20;;;;;;;20.83;11.82;;;4.80;99.90;;;;;;5014199;28;20033;-66
2020/12/31 04:27:46;;;;;;;20.90;11.82;;;4.80;99.90;;;;;;5015208;28;20034;-66
2020/12/31 04:30:12;;;;;;;22.10;12.23;;;4.80;99.90;;;;;;5016130;28;20025;-67
2020/12/31 04:32:37;;;;;;;20.38;11.43;;;4.70;99.90;;;;;;5021157;28;20052;-66
2020/12/31 04:35:03;;;;;;;19.85;11.07;;;4.80;99.90;;;;;;5014128;28;20033;-67
2020/12/31 04:37:29;;;;;;;18.10;10.68;;;4.80;99.90;;;;;;5018320;28;20087;-66
2020/12/31 04:39:55;;;;;;;20.17;12.45;;;4.80;99.90;;;;;;5020072;28;20132;-66
2020/12/31 04:42:21;;;;;;;16.83;10.00;;;4.80;99.90;;;;;;5016102;28;20041;-67
2020/12/31 04:44:48;;;;;;;19.60;10.38;;;4.80;99.90;;;;;;5015791;28;20069;-67
2020/12/31 04:47:20;;;;;;;23.77;11.38;;;4.80;99.90;;;;;;5016371;28;20046;-66
2020/12/31 04:49:51;;;;;;;17.88;10.40;;;4.80;99.90;;;;;;5017671;28;20052;-67
2020/12/31 04:52:18;;;;;;;17.48;10.52;;;4.90;99.90;;;;;;5019180;28;20025;-67
2020/12/31 04:54:44;;;;;;;19.95;10.77;;;4.90;99.90;;;;;;5016736;28;20100;-67
2020/12/31 04:57:10;;;;;;;17.67;10.98;;;4.80;99.90;;;;;;5018188;28;20550;-67
2020/12/31 04:59:36;;;;;;;20.40;11.55;;;4.90;99.90;;;;;;5017806;28;20037;-67
2020/12/31 05:02:05;;;;;;;19.02;12.00;;;4.90;99.90;;;;;;5017603;28;20049;-66
2020/12/31 05:04:31;;;;;;;21.85;12.13;;;4.80;99.90;;;;;;5011834;28;20059;-67
2020/12/31 05:06:58;;;;;;;19.98;11.65;;;4.90;99.90;;;;;;5017538;28;20034;-67
2020/12/31 05:09:24;;;;;;;22.85;11.68;;;4.80;99.90;;;;;;5019237;28;20046;-67
2020/12/31 05:11:52;;;;;;;20.38;11.63;;;4.80;99.90;;;;;;5014171;28;20341;-67
2020/12/31 05:14:36;;;;;;;22.05;12.77;;;4.80;99.90;;;;;;5016578;28;20132;-67
2020/12/31 05:17:17;;;;;;;24.13;13.88;;;4.80;99.90;;;;;;5016629;28;20033;-67
2020/12/31 05:19:44;;;;;;;19.65;11.32;;;4.80;99.90;;;;;;5014894;28;20041;-66
2020/12/31 05:22:17;;;;;;;20.88;12.75;;;4.80;99.90;;;;;;5015613;28;20492;-66
2020/12/31 05:24:50;;;;;;;20.23;12.02;;;4.80;99.90;;;;;;5014530;28;20037;-66
2020/12/31 05:27:27;;;;;;;21.23;12.02;;;4.80;99.90;;;;;;5015788;28;20089;-66
2020/12/31 05:30:00;;;;;;;20.17;12.38;;;4.70;99.90;;;;;;5016019;28;20103;-67
2020/12/31 05:32:35;;;;;;;20.20;12.05;;;4.70;99.90;;;;;;5013251;28;20030;-66
2020/12/31 05:35:12;;;;;;;22.30;12.52;;;4.80;99.90;;;;;;5010591;28;20068;-67
2020/12/31 05:37:39;;;;;;;21.60;12.75;;;4.80;99.90;;;;;;5017368;28;20495;-66
2020/12/31 05:40:07;;;;;;;24.45;12.30;;;4.90;99.90;;;;;;5015733;28;20049;-67
2020/12/31 05:42:35;;;;;;;24.77;12.60;;;4.90;99.90;;;;;;5014843;28;20057;-67
2020/12/31 05:45:09;;;;;;;22.02;13.05;;;4.90;99.90;;;;;;5014064;28;20048;-67
2020/12/31 05:47:43;;;;;;;23.70;13.18;;;4.90;99.90;;;;;;5017193;28;20033;-66
2020/12/31 05:50:21;;;;;;;20.77;12.13;;;4.80;99.90;;;;;;5016044;28;20107;-67
2020/12/31 05:52:49;;;;;;;21.10;12.68;;;4.80;99.90;;;;;;5011061;28;20057;-67
2020/12/31 05:55:17;;;;;;;19.85;12.32;;;4.80;99.90;;;;;;5010269;28;20022;-67
2020/12/31 05:57:54;;;;;;;25.77;13.43;;;4.90;99.90;;;;;;5016330;28;20148;-67
2020/12/31 06:00:28;;;;;;;24.48;13.50;;;4.90;99.90;;;;;;5015731;28;20493;-67
2020/12/31 06:02:57;;;;;;;21.55;12.77;;;4.90;99.90;;;;;;5018043;28;20045;-67
2020/12/31 06:05:24;;;;;;;20.25;12.60;;;4.90;99.90;;;;;;5017825;28;20068;-67
2020/12/31 06:07:58;;;;;;;21.55;12.82;;;5.00;99.90;;;;;;4999866;28;20033;-67
2020/12/31 06:10:31;;;;;;;20.13;12.27;;;5.00;99.90;;;;;;5016102;28;20331;-67
2020/12/31 06:13:07;;;;;;;19.98;12.05;;;5.00;99.90;;;;;;5008941;28;20025;-67
2020/12/31 06:15:34;;;;;;;20.60;12.48;;;4.80;99.90;;;;;;5017393;28;20044;-67
2020/12/31 06:18:01;;;;;;;20.90;12.38;;;4.90;99.90;;;;;;5014966;28;20133;-67
2020/12/31 06:20:29;;;;;;;25.35;15.05;;;4.90;99.90;;;;;;5017927;28;20144;-67
2020/12/31 06:23:04;;;;;;;22.17;14.85;;;4.90;99.90;;;;;;5013392;28;20103;-67
2020/12/31 06:25:39;;;;;;;25.00;15.13;;;4.90;99.90;;;;;;5011997;28;20044;-67
2020/12/31 06:28:14;;;;;;;21.80;13.90;;;4.90;99.90;;;;;;5010360;28;20026;-66
2020/12/31 06:30:43;;;;;;;19.77;12.13;;;4.90;99.90;;;;;;5012239;28;20095;-67
2020/12/31 06:33:33;;;;;;;22.67;13.03;;;4.90;99.90;;;;;;5011917;28;20107;-66
2020/12/31 06:36:03;;;;;;;23.40;13.52;;;4.90;99.90;;;;;;5013302;28;20441;-67
2020/12/31 06:38:32;;;;;;;20.58;13.05;;;4.80;99.90;;;;;;5015831;28;20142;-67
2020/12/31 06:40:59;;;;;;;21.52;13.70;;;4.70;99.90;;;;;;5013214;28;20029;-67
2020/12/31 06:43:31;;;;;;;21.70;13.50;;;4.70;99.90;;;;;;5011543;28;20037;-67
2020/12/31 06:45:58;;;;;;;22.80;13.07;;;4.70;99.90;;;;;;5013528;28;20090;-67
2020/12/31 06:48:26;;;;;;;22.48;13.98;;;4.60;99.90;;;;;;5011616;28;20037;-67
2020/12/31 06:51:06;;;;;;;21.60;13.18;;;4.60;99.90;;;;;;5010689;28;20110;-68
2020/12/31 06:53:44;;;;;;;21.73;14.38;;;4.60;99.90;;;;;;5012905;28;20439;-68
2020/12/31 06:56:11;;;;;;;22.15;14.13;;;4.60;99.90;;;;;;5007968;28;20702;-68
2020/12/31 06:58:37;;;;;;;21.08;11.82;;;4.60;99.90;;;;;;5012654;28;20483;-68
2020/12/31 07:01:31;;;;;;;21.73;12.32;;;4.60;99.90;;;;;;5011488;28;20036;-68
2020/12/31 07:03:57;;;;;;;20.42;13.00;;;4.60;99.90;;;;;;5014761;28;20037;-68
2020/12/31 07:06:23;;;;;;;22.23;13.70;;;4.60;99.90;;;;;;5009823;28;20464;-68
2020/12/31 07:08:54;;;;;;;17.98;11.45;;;4.70;99.90;;;;;;5011401;28;20025;-68
2020/12/31 07:11:31;;;;;;;20.55;12.57;;;4.70;99.90;;;;;;5017004;28;20400;-68
2020/12/31 07:13:57;;;;;;;19.30;11.40;;;4.70;99.90;;;;;;5016643;28;20425;-68
2020/12/31 07:16:44;;;;;;;18.33;11.23;;;4.60;99.90;;;;;;5008999;28;20041;-68
2020/12/31 07:19:10;;;;;;;17.92;11.98;;;4.60;99.90;;;;;;5010555;28;20071;-69
2020/12/31 07:21:37;;;;;;;19.10;11.32;;;4.60;99.90;;;;;;5007187;28;20132;-68
2020/12/31 07:24:22;;;;;;;18.60;11.48;;;4.60;99.90;;;;;;5012145;28;20103;-68
2020/12/31 07:26:57;;;;;;;20.05;12.45;;;4.60;99.90;;;;;;5008102;28;20033;-69
2020/12/31 07:29:29;;;;;;;20.33;11.10;;;4.60;99.90;;;;;;5011966;28;20818;-69
2020/12/31 07:31:55;;;;;;;18.60;11.13;;;4.60;99.90;;;;;;5011295;28;20037;-69
2020/12/31 07:34:29;;;;;;;14.43;9.00;;;4.60;99.90;;;;;;5003638;28;20032;-69
2020/12/31 07:36:56;;;;;;;12.82;7.30;;;4.60;99.90;;;;;;5003591;28;20524;-69
2020/12/31 07:39:23;;;;;;;11.18;7.28;;;4.60;99.90;;;;;;5005093;28;20694;-70
2020/12/31 07:41:48;;;;;;;12.95;8.50;;;4.50;99.90;;;;;;5007174;28;20100;-72
2020/12/31 07:44:14;;;;;;;13.85;7.72;;;4.60;99.90;;;;;;5011611;28;20477;-73
2020/12/31 07:46:40;;;;;;;11.52;7.85;;;4.50;99.90;;;;;;5013637;28;20116;-73
2020/12/31 07:49:12;;;;;;;17.20;8.40;;;4.50;99.90;;;;;;5013605;28;20056;-72
2020/12/31 07:51:45;;;;;;;18.42;11.45;;;4.40;99.90;;;;;;5013538;28;20485;-73
2020/12/31 07:54:11;;;;;;;17.02;9.05;;;4.30;99.90;;;;;;5010261;28;20029;-72
2020/12/31 07:56:38;;;;;;;11.48;7.50;;;4.40;99.90;;;;;;5013582;28;20055;-72
2020/12/31 07:59:04;;;;;;;10.73;7.03;;;4.30;99.90;;;;;;5014980;28;20026;-73
2020/12/31 08:01:30;;;;;;;11.30;7.90;;;4.30;99.90;;;;;;5017746;28;20033;-73
2020/12/31 08:04:09;;;;;;;12.00;6.80;;;4.30;99.90;;;;;;5015612;28;20029;-73
2020/12/31 08:06:35;;;;;;;10.45;5.75;;;4.40;99.90;;;;;;5015485;28;20151;-73
2020/12/31 08:09:01;;;;;;;9.07;5.82;;;4.30;99.90;;;;;;5015646;28;20033;-73
2020/12/31 08:11:27;;;;;;;9.48;6.25;;;4.20;99.90;;;;;;5016425;28;20036;-73
2020/12/31 08:14:05;;;;;;;10.23;6.13;;;4.20;99.90;;;;;;5011175;28;20444;-73
2020/12/31 08:16:31;;;;;;;12.18;6.78;;;4.20;99.90;;;;;;5016904;28;20333;-74
2020/12/31 08:18:57;;;;;;;11.88;6.80;;;4.10;99.90;;;;;;5016832;28;20392;-73
2020/12/31 08:21:24;;;;;;;11.10;6.90;;;4.20;99.90;;;;;;5015983;28;20477;-73
2020/12/31 08:24:06;;;;;;;11.32;6.63;;;4.20;99.90;;;;;;5014185;28;20559;-73
2020/12/31 08:26:33;;;;;;;9.40;5.45;;;4.20;99.90;;;;;;5012708;28;20978;-73
2020/12/31 08:28:59;;;;;;;8.73;5.57;;;4.20;99.90;;;;;;5014868;28;20625;-73
2020/12/31 08:31:25;;;;;;;8.20;4.75;;;4.10;99.90;;;;;;5013992;28;20084;-73
2020/12/31 08:33:59;;;;;;;9.38;4.65;;;4.10;99.90;;;;;;5015374;28;20067;-72
2020/12/31 08:36:26;;;;;;;7.63;4.47;;;4.10;99.90;;;;;;5016063;28;20037;-72
2020/12/31 08:38:58;;;;;;;8.60;5.20;;;4.00;99.90;;;;;;5016507;28;20520;-73
2020/12/31 08:41:24;;;;;;;7.65;4.88;;;4.10;99.90;;;;;;5008247;28;20602;-72
2020/12/31 08:43:52;;;;;;;10.32;5.82;;;4.10;99.90;;;;;;5014335;28;20365;-73
2020/12/31 08:46:22;;;;;;;10.90;5.95;;;3.90;99.90;;;;;;5005846;28;21868;-73
2020/12/31 08:48:53;;;;;;;12.05;6.97;;;3.80;99.90;;;;;;5015986;28;20576;-73
2020/12/31 08:51:19;;;;;;;15.27;8.85;;;3.90;99.90;;;;;;5013047;28;20041;-73
2020/12/31 08:54:02;;;;;;;18.88;10.30;;;4.00;99.90;;;;;;5015374;28;20053;-73
2020/12/31 08:56:31;;;;;;;17.35;8.70;;;3.90;99.90;;;;;;5016095;28;20123;-72
2020/12/31 08:59:11;;;;;;;13.73;7.40;;;3.70;99.90;;;;;;5016451;28;20076;-72
2020/12/31 09:01:38;;;;;;;14.13;7.10;;;3.80;99.90;;;;;;5016389;28;20033;-73
2020/12/31 09:04:18;;;;;;;9.07;5.50;;;3.80;99.90;;;;;;5013522;28;20040;-73
2020/12/31 09:06:48;;;;;;;;;;;3.90;99.90;;;;;;5018228;28;20045;-73
2020/12/31 09:09:21;;;;;;;10.55;5.95;;;3.90;99.90;;;;;;5010404;28;19912;-73
2020/12/31 09:12:08;;;;;;;9.32;5.65;;;3.80;99.90;;;;;;5014708;28;20041;-73
2020/12/31 09:14:36;;;;;;;14.07;8.05;;;3.70;99.90;;;;;;5010825;28;20029;-73
2020/12/31 09:17:31;;;;;;;12.32;8.40;;;3.70;99.90;;;;;;5015670;28;20119;-73
2020/12/31 09:19:57;;;;;;;12.25;8.43;;;3.70;99.90;;;;;;5019218;28;20267;-73
2020/12/31 09:22:25;;;;;;;10.30;6.60;;;3.60;99.90;;;;;;5020437;28;20380;-73
2020/12/31 09:24:51;;;;;;;9.30;5.43;;;3.60;99.90;;;;;;5016400;28;20022;-73
2020/12/31 09:27:25;;;;;;;10.10;5.78;;;3.50;99.90;;;;;;5033343;28;20033;-73
2020/12/31 09:30:03;;;;;;;9.48;5.75;;;3.50;99.90;;;;;;5016837;28;20087;-73
2020/12/31 09:32:29;;;;;;;9.40;4.57;;;3.50;99.90;;;;;;5015699;28;20647;-72
2020/12/31 09:34:55;;;;;;;8.30;4.95;;;3.50;99.90;;;;;;5014578;28;20041;-72
2020/12/31 09:37:21;;;;;;;10.80;6.15;;;3.50;99.90;;;;;;5006817;28;20038;-73
2020/12/31 09:39:47;;;;;;;9.13;5.43;;;3.50;99.90;;;;;;5012421;28;20040;-65
2020/12/31 09:42:13;;;;;;;9.15;5.35;;;3.40;99.90;;;;;;5010796;28;20095;-63
2020/12/31 09:44:39;;;;;;;8.52;4.72;;;3.50;99.90;;;;;;5007623;28;20352;-63
2020/12/31 09:47:06;;;;;;;8.70;4.72;;;3.60;99.90;;;;;;5002073;28;20427;-63
2020/12/31 09:49:32;;;;;;;8.50;4.55;;;3.60;99.90;;;;;;5007289;28;20620;-63
2020/12/31 09:51:59;;;;;;;10.98;4.90;;;3.60;99.90;;;;;;5008162;28;20541;-62
2020/12/31 09:54:25;;;;;;;15.45;10.15;;;3.60;99.90;;;;;;5008485;28;20394;-63
2020/12/31 09:56:51;;;;;;;12.05;7.70;;;3.60;99.90;;;;;;5007360;28;20060;-63
2020/12/31 09:59:16;;;;;;;6.65;3.90;;;3.60;99.90;;;;;;5009641;28;20145;-62
2020/12/31 10:01:44;;;;;;;7.55;4.28;;;3.60;99.90;;;;;;5006504;28;20466;-63
2020/12/31 10:04:10;;;;;;;7.05;4.10;;;3.50;99.90;;;;;;5009897;28;20033;-62
2020/12/31 10:06:36;;;;;;;7.47;4.50;;;3.50;99.90;;;;;;5007596;28;20045;-62
2020/12/31 10:09:02;;;;;;;9.70;5.70;;;3.50;99.90;;;;;;5005156;28;20068;-62
2020/12/31 10:11:29;;;;;;;7.43;5.10;;;3.50;99.90;;;;;;5008031;28;20056;-62
2020/12/31 10:13:55;;;;;;;9.30;6.07;;;3.40;99.90;;;;;;5010910;28;20607;-62
2020/12/31 10:16:21;;;;;;;13.45;7.00;;;3.40;99.90;;;;;;5014144;28;20118;-62
2020/12/31 10:18:47;;;;;;;13.18;8.52;;;3.50;99.90;;;;;;5014609;28;20370;-62
2020/12/31 10:21:13;;;;;;;15.43;9.93;;;3.60;99.90;;;;;;5011429;28;20388;-62
2020/12/31 10:23:39;;;;;;;14.40;9.20;;;3.50;99.90;;;;;;5014322;28;20033;-62
2020/12/31 10:26:05;;;;;;;10.65;6.93;;;3.50;99.90;;;;;;5013891;28;20357;-62
2020/12/31 10:28:31;;;;;;;8.48;4.65;;;3.40;99.90;;;;;;5009627;28;20076;-62
2020/12/31 10:30:59;;;;;;;5.82;3.70;;;3.40;99.90;;;;;;5014926;28;20025;-62
2020/12/31 10:33:25;;;;;;;7.22;4.53;;;3.30;99.90;;;;;;5008317;28;20033;-62
2020/12/31 10:35:51;;;;;;;5.45;3.30;;;3.30;99.90;;;;;;5014695;28;20049;-62
2020/12/31 10:38:17;;;;;;;5.07;3.08;;;3.20;99.90;;;;;;5015781;28;20401;-62
2020/12/31 10:40:43;;;;;;;4.75;2.70;;;3.30;99.90;;;;;;5013484;28;20044;-62
2020/12/31 10:43:09;;;;;;;5.07;3.13;;;3.30;99.90;;;;;;5014076;28;20042;-61
2020/12/31 10:45:35;;;;;;;4.25;2.72;;;3.30;99.90;;;;;;5014800;28;20064;-61
2020/12/31 10:48:00;;;;;;;5.60;3.08;;;3.40;99.90;;;;;;5008683;28;20045;-62
2020/12/31 10:50:28;;;;;;;8.68;4.75;;;3.30;99.90;;;;;;5013030;28;20030;-61
2020/12/31 10:52:54;;;;;;;9.32;5.40;;;3.30;99.90;;;;;;5013035;28;20033;-62
2020/12/31 10:55:20;;;;;;;8.50;5.35;;;3.20;99.90;;;;;;5007709;28;20026;-62
2020/12/31 10:57:46;;;;;;;8.63;4.78;;;3.20;99.90;;;;;;5011812;28;20826;-62
2020/12/31 11:00:11;;;;;;;5.35;3.20;;;3.20;99.90;;;;;;5014438;28;20486;-62
2020/12/31 11:02:37;;;;;;;5.47;3.30;;;3.30;99.90;;;;;;5012016;28;20378;-62
2020/12/31 11:05:06;;;;;;;4.88;2.92;;;3.30;99.90;;;;;;5009781;28;20026;-62
2020/12/31 11:07:32;;;;;;;6.15;3.17;;;3.30;99.90;;;;;;5006542;28;20084;-62
2020/12/31 11:09:58;;;;;;;5.45;2.85;;;3.30;99.90;;;;;;5009967;28;20022;-62
2020/12/31 11:12:24;;;;;;;3.72;2.65;;;3.40;99.90;;;;;;5017435;28;20584;-61
2020/12/31 11:14:50;;;;;;;5.55;3.13;;;3.50;99.90;;;;;;5013189;28;20861;-62
2020/12/31 11:17:15;;;;;;;5.10;2.92;;;3.60;99.90;;;;;;5016855;28;20487;-62
2020/12/31 11:19:41;;;;;;;3.50;2.70;;;3.60;99.90;;;;;;5013882;28;20145;-62
2020/12/31 11:22:09;;;;;;;3.40;2.33;;;3.60;99.90;;;;;;5013299;28;20366;-62
2020/12/31 11:24:35;;;;;;;3.72;2.53;;;3.60;99.90;;;;;;5012451;28;20037;-62
2020/12/31 11:27:01;;;;;;;4.50;2.58;;;3.60;99.90;;;;;;5012599;28;20036;-62
2020/12/31 11:29:27;;;;;;;4.35;2.40;;;3.50;99.90;;;;;;5015112;28;20224;-62
2020/12/31 11:31:53;;;;;;;3.90;2.22;;;3.30;99.90;;;;;;5011459;28;20108;-61
2020/12/31 11:34:18;;;;;;;4.40;2.42;;;3.40;99.90;;;;;;5005176;28;20033;-61
2020/12/31 11:36:44;;;;;;;3.60;2.38;;;3.40;99.90;;;;;;5005678;28;20119;-61
2020/12/31 11:39:10;;;;;;;4.40;2.67;;;3.40;99.90;;;;;;5007081;28;20056;-61
2020/12/31 11:41:36;;;;;;;9.90;4.68;;;3.30;99.90;;;;;;5013372;28;20045;-62
2020/12/31 11:44:02;;;;;;;11.32;5.93;;;3.30;99.90;;;;;;5009811;28;20469;-62
2020/12/31 11:46:27;;;;;;;3.10;2.15;;;3.30;99.90;;;;;;5013206;28;20396;-61
2020/12/31 11:48:53;;;;;;;5.45;2.92;;;3.40;99.90;;;;;;5008044;28;20033;-62
2020/12/31 11:51:19;;;;;;;4.07;1.83;;;3.40;99.90;;;;;;5013895;28;20075;-62
2020/12/31 11:53:45;;;;;;;3.50;2.05;;;3.40;99.90;;;;;;5011935;28;20029;-62
2020/12/31 11:56:11;;;;;;;3.85;2.10;;;3.40;99.90;;;;;;5013976;28;20036;-62
2020/12/31 11:58:36;;;;;;;2.33;1.50;;;3.50;99.90;;;;;;5014885;28;20382;-62
2020/12/31 12:01:03;;;;;;;2.72;1.60;;;3.50;99.90;;;;;;5011733;28;20044;-62
2020/12/31 12:03:28;;;;;;;3.30;2.15;;;3.50;99.90;;;;;;5010794;28;20033;-62
2020/12/31 12:05:55;;;;;;;27.33;17.58;;;3.50;99.90;;;;;;5011214;28;20467;-62
2020/12/31 12:08:28;;;;;;;18.67;11.23;;;3.40;99.90;;;;;;5009617;28;20026;-62
2020/12/31 12:10:55;;;;;;;9.38;5.57;;;3.50;99.90;;;;;;5013918;28;20053;-62
2020/12/31 12:13:21;;;;;;;3.58;2.33;;;3.50;99.90;;;;;;5013211;28;20803;-62
2020/12/31 12:15:47;;;;;;;4.10;2.17;;;3.50;99.90;;;;;;5012594;28;20113;-62
2020/12/31 12:18:13;;;;;;;3.20;2.13;;;3.50;99.90;;;;;;5014406;28;20044;-62
2020/12/31 12:20:39;;;;;;;2.83;1.92;;;3.50;99.90;;;;;;5012501;28;20049;-62
2020/12/31 12:23:04;;;;;;;2.88;1.70;;;3.40;99.90;;;;;;5012885;28;20051;-66
2020/12/31 12:25:30;;;;;;;3.05;1.65;;;3.40;99.90;;;;;;5010282;28;20105;-62
2020/12/31 12:27:56;;;;;;;3.00;1.88;;;3.50;99.90;;;;;;5012939;28;20128;-62
2020/12/31 12:30:22;;;;;;;2.92;1.65;;;3.60;99.90;;;;;;5012407;28;20044;-62
2020/12/31 12:32:48;;;;;;;3.03;1.75;;;3.70;99.90;;;;;;5007082;28;20128;-62
2020/12/31 12:35:14;;;;;;;3.17;1.92;;;3.60;99.90;;;;;;5007925;28;20615;-62
2020/12/31 12:37:40;;;;;;;2.95;1.92;;;3.60;99.90;;;;;;5006692;28;20918;-62
2020/12/31 12:40:08;;;;;;;2.80;1.98;;;3.50;99.90;;;;;;5008064;28;20169;-62
2020/12/31 12:42:34;;;;;;;2.47;2.00;;;3.50;99.90;;;;;;5003225;28;20493;-62
2020/12/31 12:45:03;;;;;;;2.25;1.60;;;3.50;99.90;;;;;;5006926;28;20108;-62
2020/12/31 12:47:31;;;;;;;3.45;1.92;;;3.50;99.90;;;;;;5008680;28;20038;-62